Item Display Status Serial CT Sensor

Mooring Depth: 1 m

 

Deployed Sensor

  • Serial Number: 8808
  • NDBC Property Number: 35223
  • Start Date: 4/17/2018 (14:16:36 Z)
  • End Date: Currently Active
Water Temperature [°C]     6 entries per hour
Showing data from 12/9/2019 (13:00:00 Z) to 12/8/2019 (00:00:01 Z)
Previous Next [ Day | 3-Days | 7-Days ]
First Last
Prev [ Day | 3-Days | 7-Days ] Next
First Last

Start Time:     :
End Time:     :     
Time (in GMT) :00 :50 :40 :30 :20 :10
Previous Next [ Day | 3-Days | 7-Days ]
First Last
Prev [ Day | 3-Days | 7-Days ] Next
First Last


123 => good data
MM => data is determined as missing
-- => data not received/configured
Back to Top Back to Top
12/9/2019 13:00 to 12:10 28.847 28.830 28.832 28.822 28.836 28.837
12/9/2019 12:00 to 11:10 28.836 28.858 28.847 28.854 28.852 28.851
12/9/2019 11:00 to 10:10 28.868 28.878 28.866 28.875 28.869 28.869
12/9/2019 10:00 to 9:10 28.890 28.911 28.907 28.904 28.956 28.992
12/9/2019 09:00 to 8:10 29.000 28.968 28.992 29.013 28.978 28.979
12/9/2019 08:00 to 7:10 28.949 28.979 29.005 29.004 29.043 29.030
12/9/2019 07:00 to 6:10 28.980 29.019 28.983 29.021 29.065 29.099
12/9/2019 06:00 to 5:10 29.086 29.136 29.144 29.163 29.168 29.136
12/9/2019 05:00 to 4:10 29.152 29.079 29.145 29.152 29.181 29.167
12/9/2019 04:00 to 3:10 29.176 29.264 29.176 29.097 29.184 29.177
12/9/2019 03:00 to 2:10 29.239 29.236 29.248 29.262 29.286 29.387
12/9/2019 02:00 to 1:10 29.272 29.205 29.136 29.243 29.288 29.245
12/9/2019 01:00 to 0:10 29.253 29.287 29.255 29.160 29.125 29.125
12/9/2019 00:00 to 23:10 29.092 29.079 29.076 29.093 29.115 29.070
12/8/2019 23:00 to 22:10 29.064 29.100 29.039 29.019 28.971 29.004
12/8/2019 22:00 to 21:10 28.972 28.956 28.945 28.916 28.924 28.879
12/8/2019 21:00 to 20:10 28.878 28.855 28.840 28.826 28.809 28.810
12/8/2019 20:00 to 19:10 28.800 28.806 28.797 28.807 28.796 28.789
12/8/2019 19:00 to 18:10 28.785 28.777 28.757 28.763 28.778 28.770
12/8/2019 18:00 to 17:10 28.764 28.765 28.753 28.766 28.753 28.747
12/8/2019 17:00 to 16:10 28.764 28.766 28.772 28.767 28.773 28.774
12/8/2019 16:00 to 15:10 28.754 28.771 28.780 28.779 28.797 28.801
12/8/2019 15:00 to 14:10 28.801 28.824 28.832 28.810 28.815 28.826
12/8/2019 14:00 to 13:10 28.838 28.840 28.859 28.873 28.867 28.866
12/8/2019 13:00 to 12:10 28.869 28.869 28.870 28.840 28.843 28.859
12/8/2019 12:00 to 11:10 28.862 28.875 28.896 28.900 28.880 28.886
12/8/2019 11:00 to 10:10 28.898 28.893 28.902 28.891 28.919 28.946
12/8/2019 10:00 to 9:10 28.968 28.946 28.938 28.935 28.927 28.915
12/8/2019 09:00 to 8:10 28.941 28.908 28.962 28.951 28.985 28.989
12/8/2019 08:00 to 7:10 28.996 29.054 29.036 29.039 29.070 29.055
12/8/2019 07:00 to 6:10 29.078 29.105 29.102 29.113 29.096 29.073
12/8/2019 06:00 to 5:10 29.079 29.095 29.107 29.093 29.095 29.152
12/8/2019 05:00 to 4:10 29.180 29.168 29.196 29.229 29.216 29.222
12/8/2019 04:00 to 3:10 29.249 29.288 29.282 29.307 29.351 29.361
12/8/2019 03:00 to 2:10 29.250 29.241 29.247 29.267 29.302 29.192
12/8/2019 02:00 to 1:10 29.322 29.294 29.290 29.230 29.305 29.265
12/8/2019 01:00 to 0:10 29.308 29.220 29.234 29.191 29.152 29.126

 

 

 

Conductivity [S/m]     6 entries per hour
Showing data from 12/9/2019 (13:00:00 Z) to 12/8/2019 (00:00:01 Z)
Previous Next [ Day | 3-Days | 7-Days ]
First Last
Prev [ Day | 3-Days | 7-Days ] Next
First Last

Start Time:     :
End Time:     :     
Time (in GMT) :00 :50 :40 :30 :20 :10
Previous Next [ Day | 3-Days | 7-Days ]
First Last
Prev [ Day | 3-Days | 7-Days ] Next
First Last


123 => good data
MM => data is determined as missing
-- => data not received/configured
Back to Top Back to Top
12/9/2019 13:00 to 12:10 5.72591 5.72421 5.72405 5.72341 5.72418 5.72415
12/9/2019 12:00 to 11:10 5.72426 5.72660 5.72559 5.72644 5.72606 5.72620
12/9/2019 11:00 to 10:10 5.72791 5.72899 5.72736 5.72851 5.72789 5.72785
12/9/2019 10:00 to 9:10 5.73032 5.73245 5.73228 5.73175 5.73751 5.74133
12/9/2019 09:00 to 8:10 5.74237 5.73899 5.74169 5.74376 5.74008 5.73977
12/9/2019 08:00 to 7:10 5.73653 5.73984 5.74286 5.74275 5.74732 5.74595
12/9/2019 07:00 to 6:10 5.74017 5.74467 5.74050 5.74475 5.74943 5.75323
12/9/2019 06:00 to 5:10 5.75177 5.75688 5.75860 5.75979 5.76069 5.75721
12/9/2019 05:00 to 4:10 5.75916 5.75075 5.75785 5.75892 5.76182 5.75995
12/9/2019 04:00 to 3:10 5.76110 5.77067 5.76096 5.75206 5.76183 5.76146
12/9/2019 03:00 to 2:10 5.76820 5.76880 5.76871 5.77022 5.77275 5.78390
12/9/2019 02:00 to 1:10 5.77143 5.76407 5.75712 5.76783 5.77301 5.76855
12/9/2019 01:00 to 0:10 5.76905 5.77305 5.76944 5.75940 5.75633 5.75595
12/9/2019 00:00 to 23:10 5.75272 5.75046 5.74973 5.75129 5.75382 5.74958
12/8/2019 23:00 to 22:10 5.74807 5.75244 5.74595 5.74370 5.73942 5.74210
12/8/2019 22:00 to 21:10 5.73982 5.73777 5.73674 5.73379 5.73488 5.72942
12/8/2019 21:00 to 20:10 5.73026 5.72726 5.72600 5.72399 5.72140 5.72160
12/8/2019 20:00 to 19:10 5.72064 5.72158 5.72054 5.72230 5.72076 5.71946
12/8/2019 19:00 to 18:10 5.72019 5.71872 5.71609 5.71675 5.71868 5.71788
12/8/2019 18:00 to 17:10 5.71772 5.71783 5.71773 5.71858 5.71728 5.71710
12/8/2019 17:00 to 16:10 5.71983 5.71972 5.71958 5.71853 5.71907 5.71909
12/8/2019 16:00 to 15:10 5.71676 5.71776 5.71816 5.71805 5.71950 5.71961
12/8/2019 15:00 to 14:10 5.71901 5.72142 5.72215 5.72122 5.72064 5.72193
12/8/2019 14:00 to 13:10 5.72324 5.72371 5.72543 5.72676 5.72623 5.72636
12/8/2019 13:00 to 12:10 5.72699 5.72654 5.72653 5.72343 5.72356 5.72542
12/8/2019 12:00 to 11:10 5.72599 5.72777 5.73008 5.73052 5.72808 5.72867
12/8/2019 11:00 to 10:10 5.73044 5.72996 5.73096 5.73020 5.73344 5.73676
12/8/2019 10:00 to 9:10 5.73930 5.73672 5.73622 5.73567 5.73483 5.73378
12/8/2019 09:00 to 8:10 5.73631 5.73282 5.73900 5.73760 5.74153 5.74194
12/8/2019 08:00 to 7:10 5.74308 5.74977 5.74758 5.74803 5.75192 5.75010
12/8/2019 07:00 to 6:10 5.75283 5.75591 5.75602 5.75699 5.75487 5.75247
12/8/2019 06:00 to 5:10 5.75423 5.75485 5.75702 5.75449 5.75534 5.76139
12/8/2019 05:00 to 4:10 5.76385 5.76327 5.76702 5.77106 5.77006 5.77059
12/8/2019 04:00 to 3:10 5.77361 5.77795 5.77848 5.78086 5.78733 5.78782
12/8/2019 03:00 to 2:10 5.77491 5.77512 5.77508 5.77544 5.78152 5.76898
12/8/2019 02:00 to 1:10 5.78291 5.78059 5.78040 5.77488 5.78264 5.77843
12/8/2019 01:00 to 0:10 5.78415 5.77525 5.77672 5.77238 5.76681 5.76168

 

 

 

Salinity [psu]     6 entries per hour
Showing data from 12/9/2019 (13:00:00 Z) to 12/8/2019 (00:00:01 Z)
Previous Next [ Day | 3-Days | 7-Days ]
First Last
Prev [ Day | 3-Days | 7-Days ] Next
First Last

Start Time:     :
End Time:     :     
Time (in GMT) :00 :50 :40 :30 :20 :10
Previous Next [ Day | 3-Days | 7-Days ]
First Last
Prev [ Day | 3-Days | 7-Days ] Next
First Last


123 => good data
MM => data is determined as missing
-- => data not received/configured
Back to Top Back to Top
12/9/2019 13:00 to 12:10 35.09 35.09 35.09 35.09 35.09 35.09
12/9/2019 12:00 to 11:10 35.09 35.09 35.09 35.09 35.09 35.09
12/9/2019 11:00 to 10:10 35.09 35.09 35.09 35.09 35.09 35.09
12/9/2019 10:00 to 9:10 35.09 35.09 35.09 35.09 35.09 35.09
12/9/2019 09:00 to 8:10 35.09 35.09 35.09 35.09 35.09 35.09
12/9/2019 08:00 to 7:10 35.09 35.09 35.09 35.09 35.09 35.09
12/9/2019 07:00 to 6:10 35.09 35.09 35.09 35.09 35.09 35.09
12/9/2019 06:00 to 5:10 35.09 35.09 35.10 35.09 35.09 35.09
12/9/2019 05:00 to 4:10 35.10 35.09 35.09 35.09 35.09 35.09
12/9/2019 04:00 to 3:10 35.09 35.09 35.09 35.09 35.09 35.09
12/9/2019 03:00 to 2:10 35.09 35.10 35.09 35.09 35.09 35.09
12/9/2019 02:00 to 1:10 35.09 35.09 35.09 35.09 35.09 35.09
12/9/2019 01:00 to 0:10 35.09 35.09 35.09 35.09 35.10 35.09
12/9/2019 00:00 to 23:10 35.10 35.09 35.09 35.09 35.09 35.09
12/8/2019 23:00 to 22:10 35.08 35.09 35.09 35.09 35.09 35.09
12/8/2019 22:00 to 21:10 35.10 35.09 35.09 35.09 35.10 35.09
12/8/2019 21:00 to 20:10 35.10 35.09 35.10 35.09 35.09 35.09
12/8/2019 20:00 to 19:10 35.09 35.09 35.09 35.10 35.09 35.09
12/8/2019 19:00 to 18:10 35.10 35.09 35.09 35.09 35.09 35.09
12/8/2019 18:00 to 17:10 35.10 35.10 35.10 35.10 35.10 35.10
12/8/2019 17:00 to 16:10 35.11 35.11 35.10 35.10 35.10 35.10
12/8/2019 16:00 to 15:10 35.10 35.09 35.09 35.09 35.08 35.08
12/8/2019 15:00 to 14:10 35.08 35.08 35.08 35.09 35.08 35.08
12/8/2019 14:00 to 13:10 35.08 35.08 35.08 35.08 35.08 35.08
12/8/2019 13:00 to 12:10 35.08 35.08 35.08 35.08 35.08 35.08
12/8/2019 12:00 to 11:10 35.08 35.08 35.08 35.08 35.08 35.08
12/8/2019 11:00 to 10:10 35.08 35.09 35.09 35.09 35.09 35.09
12/8/2019 10:00 to 9:10 35.09 35.09 35.09 35.09 35.09 35.10
12/8/2019 09:00 to 8:10 35.09 35.09 35.10 35.10 35.10 35.10
12/8/2019 08:00 to 7:10 35.10 35.10 35.10 35.10 35.11 35.10
12/8/2019 07:00 to 6:10 35.11 35.11 35.11 35.11 35.11 35.11
12/8/2019 06:00 to 5:10 35.12 35.11 35.11 35.11 35.11 35.11
12/8/2019 05:00 to 4:10 35.11 35.11 35.12 35.12 35.12 35.12
12/8/2019 04:00 to 3:10 35.12 35.12 35.13 35.13 35.14 35.14
12/8/2019 03:00 to 2:10 35.13 35.14 35.14 35.12 35.14 35.13
12/8/2019 02:00 to 1:10 35.13 35.14 35.14 35.15 35.14 35.15
12/8/2019 01:00 to 0:10 35.15 35.16 35.16 35.16 35.15 35.13